Accueil
Images satellite Prévisions 10 joursClimatMétéo marine Cyclones Foudre AéroportsFAQ Actualités A propos
Météo : Europe Afrique Amérique du Nord Amérique du Sud Asie Australie-Océanie Autres
Langues Contact

Bauru, São Paulo, Brésil

latitude: 22-19S, longitude: 049-04W, altitude: 590 m


METAR: SBBU 012000Z 15008KT 9999 SCT045 30/23 Q1014
TAF: absent

Heure: 17:48 (20:48 UTC)

Observation

Le bulletin a été fait il y a 48 minutes, à 20:00 UTC
Vent 8 kt de sud/sud-est
Température 30°C
Humidité 66%
Pression 1014 hPa
Visibilité 10 km ou plus
Nuages épars à une hauteur de 4500 ft

Changer d'unités
Les informations qui figurent sur ce site font l'objet d'une clause de non-responsabilité
Météo : Europe Afrique Amérique du Nord Amérique du Sud Asie Australie-Océanie Autres
Images satellite Prévisions 10 joursClimatMétéo marine Cyclones Foudre AéroportsFAQ Langues Contact Actualités A propos